Paia, HI (96779)

5:14 AM HST on March 05, 2015 (GMT -1000)
Haiku, Maui Upper West Kuiaha Road | Change Station
CLOSE
Current Station
Personal Weather Station
Location: Haiku-Pauwela, HI
Elevation: 837 ft
Nearby Weather Stations

Elev 837 ft 20.90 °N, 156.30 °W | Updated 4 minutes ago

Rain
Rain
63.7 °F
Feels Like 63.7 °F
N
0.0
Wind Variable Wind from ENE
Gusts 6.0 mph

Today
High -- | Low -- °F
--% Chance of Precip.
Yesterday
High -- | Low -- °F
Precip. -- in
6:42 AM 6:31 PM
Full, 100% visible
Pressure 29.96 in
Visibility 10.0 miles
Clouds Scattered Clouds 1300 ft
Mostly Cloudy 3100 ft
Overcast 4100 ft
Dew Point 64 °F
Humidity 99%
Rainfall in
Snow Depth Not available.
UV 0 out of 12
Pollen Not available.
Air Quality Not available.
Flu Activity Not available.
METAR PHOG 051454Z AUTO 07009KT 10SM SCT013 BKN031 OVC041 19/18 A2994 RMK AO2 RAE26 SLP144 P0020 60081 T01940178 58006 TSNO $

More Conditions Fewer Conditions

Pressure 29.96 in
Visibility 10.0 miles
Clouds Scattered Clouds 1300 ft
Mostly Cloudy 3100 ft
Overcast 4100 ft
Dew Point 64 °F
Humidity 99%
Rainfall in
Snow Depth Not available.
UV 0 out of 12
Pollen Not available.
Air Quality Not available.
Flu Activity Not available.
METAR PHOG 051454Z AUTO 07009KT 10SM SCT013 BKN031 OVC041 19/18 A2994 RMK AO2 RAE26 SLP144 P0020 60081 T01940178 58006 TSNO $

More Conditions Fewer Conditions

10-Day Weather Forecast

Almanac

Astronomy

Mar. 05, 2015 Rise Set
Actual Time
Civil Twilight
Nautical Twilight
Astronomical Twilight
Moon
Length of Visible Light
Length of Day
Tomorrow will be .
, % of the Moon is Illuminated

Today's Extremes

State Highs State Lows

Community

WunderPhotos

Upload Photos

1,802,806 photos uploaded!

WunderBlogs® & News

Nearby

Air Quality

  Air Quality AQ Index Pollutant
Not available.

Snow Depth

Station Depth Elevation

Earthquake Activity

City Distance Mag. Time & Date
Minimum magnitude displayed is 2.5.

Coastal Water Temperatures

Place Temperature

Nearby Weather Stations